sensor_id;sensor_type;location;lat;lon;timestamp;pressure;altitude;pressure_sealevel;temperature;humidity
81822;BME280;72257;52.384;4.882;2024-03-07T00:00:34;113007.22;;;-145.99;100.00
81822;BME280;72257;52.384;4.882;2024-03-07T00:03:00;112738.88;;;-145.99;100.00
81822;BME280;72257;52.384;4.882;2024-03-07T00:05:26;112738.88;;;-145.99;100.00
81822;BME280;72257;52.384;4.882;2024-03-07T00:07:53;112470.56;;;-145.99;100.00
81822;BME280;72257;52.384;4.882;2024-03-07T00:10:18;112738.88;;;-145.99;100.00
81822;BME280;72257;52.384;4.882;2024-03-07T00:12:44;113007.22;;;-145.99;100.00
81822;BME280;72257;52.384;4.882;2024-03-07T00:15:11;113275.56;;;-145.99;100.00
81822;BME280;72257;52.384;4.882;2024-03-07T00:17:37;113543.94;;;-145.99;100.00
81822;BME280;72257;52.384;4.882;2024-03-07T00:20:03;113812.31;;;-145.99;100.00
81822;BME280;72257;52.384;4.882;2024-03-07T00:22:30;113812.31;;;-145.99;100.00
81822;BME280;72257;52.384;4.882;2024-03-07T00:24:57;114080.72;;;-145.99;100.00
81822;BME280;72257;52.384;4.882;2024-03-07T00:27:23;114349.16;;;-145.99;100.00
81822;BME280;72257;52.384;4.882;2024-03-07T00:29:49;114349.16;;;-145.99;100.00
81822;BME280;72257;52.384;4.882;2024-03-07T00:32:22;114349.16;;;-145.99;100.00
81822;BME280;72257;52.384;4.882;2024-03-07T00:34:49;114349.16;;;-145.99;100.00
81822;BME280;72257;52.384;4.882;2024-03-07T00:37:15;114349.16;;;-145.99;100.00
81822;BME280;72257;52.384;4.882;2024-03-07T00:39:41;114349.16;;;-145.99;100.00
81822;BME280;72257;52.384;4.882;2024-03-07T00:42:07;114349.16;;;-145.99;100.00
81822;BME280;72257;52.384;4.882;2024-03-07T00:44:32;114349.16;;;-145.99;100.00
81822;BME280;72257;52.384;4.882;2024-03-07T00:46:59;114349.16;;;-145.99;100.00
81822;BME280;72257;52.384;4.882;2024-03-07T00:49:25;114617.59;;;-145.99;100.00
81822;BME280;72257;52.384;4.882;2024-03-07T00:51:50;114886.03;;;-145.99;100.00
81822;BME280;72257;52.384;4.882;2024-03-07T00:54:16;114886.03;;;-145.99;100.00
81822;BME280;72257;52.384;4.882;2024-03-07T00:56:41;114886.03;;;-145.99;100.00
81822;BME280;72257;52.384;4.882;2024-03-07T00:59:07;114886.03;;;-145.99;100.00
81822;BME280;72257;52.384;4.882;2024-03-07T01:01:32;114349.16;;;-145.99;100.00
81822;BME280;72257;52.384;4.882;2024-03-07T01:04:00;114349.16;;;-145.99;100.00
81822;BME280;72257;52.384;4.882;2024-03-07T01:06:25;114080.72;;;-145.99;100.00
81822;BME280;72257;52.384;4.882;2024-03-07T01:08:51;114080.72;;;-145.99;100.00
81822;BME280;72257;52.384;4.882;2024-03-07T01:11:17;114080.72;;;-145.99;100.00
81822;BME280;72257;52.384;4.882;2024-03-07T01:13:42;114080.72;;;-145.99;100.00
81822;BME280;72257;52.384;4.882;2024-03-07T01:16:08;113812.31;;;-145.99;100.00
81822;BME280;72257;52.384;4.882;2024-03-07T01:18:34;113812.31;;;-145.99;100.00
81822;BME280;72257;52.384;4.882;2024-03-07T01:21:00;113812.31;;;-145.99;100.00
81822;BME280;72257;52.384;4.882;2024-03-07T01:23:26;113812.31;;;-145.99;100.00
81822;BME280;72257;52.384;4.882;2024-03-07T01:25:55;114080.72;;;-145.99;100.00
81822;BME280;72257;52.384;4.882;2024-03-07T01:28:20;114349.16;;;-145.99;100.00
81822;BME280;72257;52.384;4.882;2024-03-07T01:30:48;114349.16;;;-145.99;100.00
81822;BME280;72257;52.384;4.882;2024-03-07T01:33:13;114617.59;;;-145.99;100.00
81822;BME280;72257;52.384;4.882;2024-03-07T01:35:39;114617.59;;;-145.99;100.00
81822;BME280;72257;52.384;4.882;2024-03-07T01:38:04;114617.59;;;-145.99;100.00
81822;BME280;72257;52.384;4.882;2024-03-07T01:40:30;114617.59;;;-145.99;100.00
81822;BME280;72257;52.384;4.882;2024-03-07T01:42:55;114886.03;;;-145.99;100.00
81822;BME280;72257;52.384;4.882;2024-03-07T01:45:21;115154.50;;;-145.99;100.00
81822;BME280;72257;52.384;4.882;2024-03-07T01:47:46;115154.50;;;-145.99;100.00
81822;BME280;72257;52.384;4.882;2024-03-07T01:50:12;115154.50;;;-145.99;100.00
81822;BME280;72257;52.384;4.882;2024-03-07T01:52:40;115154.50;;;-145.99;100.00
81822;BME280;72257;52.384;4.882;2024-03-07T01:55:07;115423.00;;;-145.99;100.00
81822;BME280;72257;52.384;4.882;2024-03-07T01:57:32;115691.50;;;-145.99;100.00
81822;BME280;72257;52.384;4.882;2024-03-07T01:59:58;115691.50;;;-145.99;100.00
81822;BME280;72257;52.384;4.882;2024-03-07T02:02:25;115960.03;;;-145.99;100.00
81822;BME280;72257;52.384;4.882;2024-03-07T02:04:51;115960.03;;;-145.99;100.00
81822;BME280;72257;52.384;4.882;2024-03-07T02:07:16;116228.56;;;-145.99;100.00
81822;BME280;72257;52.384;4.882;2024-03-07T02:09:41;116228.56;;;-145.99;100.00
81822;BME280;72257;52.384;4.882;2024-03-07T02:12:07;116228.56;;;-145.99;100.00
81822;BME280;72257;52.384;4.882;2024-03-07T02:14:34;116228.56;;;-145.99;100.00
81822;BME280;72257;52.384;4.882;2024-03-07T02:16:59;116497.13;;;-145.99;100.00
81822;BME280;72257;52.384;4.882;2024-03-07T02:19:25;116497.13;;;-145.99;100.00
81822;BME280;72257;52.384;4.882;2024-03-07T02:21:51;116497.13;;;-145.99;100.00
81822;BME280;72257;52.384;4.882;2024-03-07T02:24:16;116765.72;;;-145.99;100.00
81822;BME280;72257;52.384;4.882;2024-03-07T02:26:42;116497.13;;;-145.99;100.00
81822;BME280;72257;52.384;4.882;2024-03-07T02:29:07;116497.13;;;-145.99;100.00
81822;BME280;72257;52.384;4.882;2024-03-07T02:31:33;116765.72;;;-145.99;100.00
81822;BME280;72257;52.384;4.882;2024-03-07T02:34:03;116765.72;;;-145.99;100.00
81822;BME280;72257;52.384;4.882;2024-03-07T02:36:28;117034.31;;;-145.99;100.00
81822;BME280;72257;52.384;4.882;2024-03-07T02:38:54;117034.31;;;-145.99;100.00
81822;BME280;72257;52.384;4.882;2024-03-07T02:41:19;117302.94;;;-145.99;100.00
81822;BME280;72257;52.384;4.882;2024-03-07T02:43:45;117571.56;;;-145.99;100.00
81822;BME280;72257;52.384;4.882;2024-03-07T02:46:10;117571.56;;;-145.99;100.00
81822;BME280;72257;52.384;4.882;2024-03-07T02:48:37;117840.22;;;-145.99;100.00
81822;BME280;72257;52.384;4.882;2024-03-07T02:51:03;118108.88;;;-145.99;100.00
81822;BME280;72257;52.384;4.882;2024-03-07T02:53:31;118108.88;;;-145.99;100.00
81822;BME280;72257;52.384;4.882;2024-03-07T02:55:57;118377.56;;;-145.99;100.00
81822;BME280;72257;52.384;4.882;2024-03-07T02:58:23;118377.56;;;-145.99;100.00
81822;BME280;72257;52.384;4.882;2024-03-07T03:00:58;118377.56;;;-145.99;100.00
81822;BME280;72257;52.384;4.882;2024-03-07T03:03:28;118377.56;;;-145.99;100.00
81822;BME280;72257;52.384;4.882;2024-03-07T03:05:56;118646.28;;;-145.99;100.00
81822;BME280;72257;52.384;4.882;2024-03-07T03:08:22;118646.28;;;-145.99;100.00
81822;BME280;72257;52.384;4.882;2024-03-07T03:10:47;118646.28;;;-145.99;100.00
81822;BME280;72257;52.384;4.882;2024-03-07T03:13:13;118646.28;;;-145.99;100.00
81822;BME280;72257;52.384;4.882;2024-03-07T03:15:38;118377.56;;;-145.99;100.00
81822;BME280;72257;52.384;4.882;2024-03-07T03:18:04;118108.88;;;-145.99;100.00
81822;BME280;72257;52.384;4.882;2024-03-07T03:20:31;117571.56;;;-145.99;100.00
81822;BME280;72257;52.384;4.882;2024-03-07T03:23:00;117302.94;;;-145.99;100.00
81822;BME280;72257;52.384;4.882;2024-03-07T03:25:28;116765.72;;;-145.99;100.00
81822;BME280;72257;52.384;4.882;2024-03-07T03:27:53;116497.13;;;-145.99;100.00
81822;BME280;72257;52.384;4.882;2024-03-07T03:30:18;116228.56;;;-145.99;100.00
81822;BME280;72257;52.384;4.882;2024-03-07T03:32:45;115960.03;;;-145.99;100.00
81822;BME280;72257;52.384;4.882;2024-03-07T03:35:11;115691.50;;;-145.99;100.00
81822;BME280;72257;52.384;4.882;2024-03-07T03:37:45;115423.00;;;-145.99;100.00
81822;BME280;72257;52.384;4.882;2024-03-07T03:40:11;115154.50;;;-145.99;100.00
81822;BME280;72257;52.384;4.882;2024-03-07T03:42:38;114886.03;;;-145.99;100.00
81822;BME280;72257;52.384;4.882;2024-03-07T03:45:05;114349.16;;;-145.99;100.00
81822;BME280;72257;52.384;4.882;2024-03-07T03:47:33;114080.72;;;-145.99;100.00
81822;BME280;72257;52.384;4.882;2024-03-07T03:49:59;113543.94;;;-145.99;100.00
81822;BME280;72257;52.384;4.882;2024-03-07T03:52:24;113007.22;;;-145.99;100.00
81822;BME280;72257;52.384;4.882;2024-03-07T03:54:51;112470.56;;;-145.99;100.00
81822;BME280;72257;52.384;4.882;2024-03-07T03:57:16;111934.00;;;-145.99;100.00
81822;BME280;72257;52.384;4.882;2024-03-07T03:59:43;111934.00;;;-145.99;100.00
81822;BME280;72257;52.384;4.882;2024-03-07T04:02:10;111397.50;;;-145.99;100.00
81822;BME280;72257;52.384;4.882;2024-03-07T04:04:39;111397.50;;;-145.99;100.00
81822;BME280;72257;52.384;4.882;2024-03-07T04:07:04;111397.50;;;-145.99;100.00
81822;BME280;72257;52.384;4.882;2024-03-07T04:09:29;111129.28;;;-145.99;100.00
81822;BME280;72257;52.384;4.882;2024-03-07T04:11:55;111397.50;;;-145.99;100.00
81822;BME280;72257;52.384;4.882;2024-03-07T04:14:20;111397.50;;;-145.99;100.00
81822;BME280;72257;52.384;4.882;2024-03-07T04:16:46;111665.75;;;-145.99;100.00
81822;BME280;72257;52.384;4.882;2024-03-07T04:19:11;111665.75;;;-145.99;100.00
81822;BME280;72257;52.384;4.882;2024-03-07T04:21:36;111665.75;;;-145.99;100.00
81822;BME280;72257;52.384;4.882;2024-03-07T04:24:02;111665.75;;;-145.99;100.00
81822;BME280;72257;52.384;4.882;2024-03-07T04:26:28;111665.75;;;-145.99;100.00
81822;BME280;72257;52.384;4.882;2024-03-07T04:28:53;111934.00;;;-145.99;100.00
81822;BME280;72257;52.384;4.882;2024-03-07T04:31:18;111934.00;;;-145.99;100.00
81822;BME280;72257;52.384;4.882;2024-03-07T04:33:44;112202.28;;;-145.99;100.00
81822;BME280;72257;52.384;4.882;2024-03-07T04:36:09;112202.28;;;-145.99;100.00
81822;BME280;72257;52.384;4.882;2024-03-07T04:38:34;112470.56;;;-145.99;100.00
81822;BME280;72257;52.384;4.882;2024-03-07T04:41:00;112202.28;;;-145.99;100.00
81822;BME280;72257;52.384;4.882;2024-03-07T04:43:25;111665.75;;;-145.99;100.00
81822;BME280;72257;52.384;4.882;2024-03-07T04:45:51;111397.50;;;-145.99;100.00
81822;BME280;72257;52.384;4.882;2024-03-07T04:48:16;110861.06;;;-145.99;100.00
81822;BME280;72257;52.384;4.882;2024-03-07T04:50:42;110324.69;;;-145.99;100.00
81822;BME280;72257;52.384;4.882;2024-03-07T04:53:07;109520.28;;;-145.99;100.00
81822;BME280;72257;52.384;4.882;2024-03-07T04:55:33;109252.19;;;-145.99;100.00
81822;BME280;72257;52.384;4.882;2024-03-07T04:57:58;108716.03;;;-145.99;100.00
81822;BME280;72257;52.384;4.882;2024-03-07T05:00:23;107911.94;;;-145.99;100.00
81822;BME280;72257;52.384;4.882;2024-03-07T05:02:50;107643.94;;;-145.99;100.00
81822;BME280;72257;52.384;4.882;2024-03-07T05:05:15;107375.97;;;-145.99;100.00
81822;BME280;72257;52.384;4.882;2024-03-07T05:07:48;107108.00;;;-145.99;100.00
81822;BME280;72257;52.384;4.882;2024-03-07T05:10:15;107108.00;;;-145.99;100.00
81822;BME280;72257;52.384;4.882;2024-03-07T05:12:40;107375.97;;;-145.99;100.00
81822;BME280;72257;52.384;4.882;2024-03-07T05:15:06;107108.00;;;-145.99;100.00
81822;BME280;72257;52.384;4.882;2024-03-07T05:17:35;107108.00;;;-145.99;100.00
81822;BME280;72257;52.384;4.882;2024-03-07T05:20:03;106840.06;;;-145.99;100.00
81822;BME280;72257;52.384;4.882;2024-03-07T05:22:29;106572.13;;;-145.99;100.00
81822;BME280;72257;52.384;4.882;2024-03-07T05:24:55;106840.06;;;-145.99;100.00
81822;BME280;72257;52.384;4.882;2024-03-07T05:27:23;107108.00;;;-145.99;100.00
81822;BME280;72257;52.384;4.882;2024-03-07T05:29:49;107108.00;;;-145.99;100.00
81822;BME280;72257;52.384;4.882;2024-03-07T05:32:24;106840.06;;;-145.99;100.00
81822;BME280;72257;52.384;4.882;2024-03-07T05:34:53;106572.13;;;-145.99;100.00
81822;BME280;72257;52.384;4.882;2024-03-07T05:37:22;106840.06;;;-145.99;100.00
81822;BME280;72257;52.384;4.882;2024-03-07T05:39:49;106840.06;;;-145.99;100.00
81822;BME280;72257;52.384;4.882;2024-03-07T05:42:14;106840.06;;;-145.99;100.00
81822;BME280;72257;52.384;4.882;2024-03-07T05:44:43;107108.00;;;-145.99;100.00
81822;BME280;72257;52.384;4.882;2024-03-07T05:47:08;107375.97;;;-145.99;100.00
81822;BME280;72257;52.384;4.882;2024-03-07T05:49:34;107643.94;;;-145.99;100.00
81822;BME280;72257;52.384;4.882;2024-03-07T05:52:00;108179.94;;;-145.99;100.00
81822;BME280;72257;52.384;4.882;2024-03-07T05:54:25;108716.03;;;-145.99;100.00
81822;BME280;72257;52.384;4.882;2024-03-07T05:56:51;109252.19;;;-145.99;100.00
81822;BME280;72257;52.384;4.882;2024-03-07T05:59:16;109788.41;;;-145.99;100.00
81822;BME280;72257;52.384;4.882;2024-03-07T06:01:42;110056.53;;;-145.99;100.00
81822;BME280;72257;52.384;4.882;2024-03-07T06:04:09;110324.69;;;-145.99;100.00
81822;BME280;72257;52.384;4.882;2024-03-07T06:06:36;110592.88;;;-145.99;100.00
81822;BME280;72257;52.384;4.882;2024-03-07T06:09:04;110592.88;;;-145.99;100.00
81822;BME280;72257;52.384;4.882;2024-03-07T06:11:36;110861.06;;;-145.99;100.00
81822;BME280;72257;52.384;4.882;2024-03-07T06:14:02;111129.28;;;-145.99;100.00
81822;BME280;72257;52.384;4.882;2024-03-07T06:16:33;111129.28;;;-145.99;100.00
81822;BME280;72257;52.384;4.882;2024-03-07T06:19:00;111129.28;;;-145.99;100.00
81822;BME280;72257;52.384;4.882;2024-03-07T06:21:27;110861.06;;;-145.99;100.00
81822;BME280;72257;52.384;4.882;2024-03-07T06:23:53;110861.06;;;-145.99;100.00
81822;BME280;72257;52.384;4.882;2024-03-07T06:26:25;111129.28;;;-145.99;100.00
81822;BME280;72257;52.384;4.882;2024-03-07T06:29:03;111129.28;;;-145.99;100.00
81822;BME280;72257;52.384;4.882;2024-03-07T06:31:30;110861.06;;;-145.99;100.00
81822;BME280;72257;52.384;4.882;2024-03-07T06:33:56;111129.28;;;-145.99;100.00
81822;BME280;72257;52.384;4.882;2024-03-07T06:36:22;111129.28;;;-145.99;100.00
81822;BME280;72257;52.384;4.882;2024-03-07T06:38:47;111129.28;;;-145.99;100.00
81822;BME280;72257;52.384;4.882;2024-03-07T06:41:13;111129.28;;;-145.99;100.00
81822;BME280;72257;52.384;4.882;2024-03-07T06:43:39;110861.06;;;-145.99;100.00
81822;BME280;72257;52.384;4.882;2024-03-07T06:46:04;110861.06;;;-145.99;100.00
81822;BME280;72257;52.384;4.882;2024-03-07T06:48:31;110324.69;;;-145.99;100.00
81822;BME280;72257;52.384;4.882;2024-03-07T06:50:56;110056.53;;;-145.99;100.00
81822;BME280;72257;52.384;4.882;2024-03-07T06:53:22;109788.41;;;-145.99;100.00
81822;BME280;72257;52.384;4.882;2024-03-07T06:55:51;109252.19;;;-145.99;100.00
81822;BME280;72257;52.384;4.882;2024-03-07T06:58:21;108984.09;;;-145.99;100.00
81822;BME280;72257;52.384;4.882;2024-03-07T07:00:48;108447.97;;;-145.99;100.00
81822;BME280;72257;52.384;4.882;2024-03-07T07:03:17;107911.94;;;-145.99;100.00
81822;BME280;72257;52.384;4.882;2024-03-07T07:05:43;107643.94;;;-145.99;100.00
81822;BME280;72257;52.384;4.882;2024-03-07T07:08:10;107108.00;;;-145.99;100.00
81822;BME280;72257;52.384;4.882;2024-03-07T07:10:36;106840.06;;;-145.99;100.00
81822;BME280;72257;52.384;4.882;2024-03-07T07:13:02;106304.22;;;-145.99;100.00
81822;BME280;72257;52.384;4.882;2024-03-07T07:15:29;105500.59;;;-145.99;100.00
81822;BME280;72257;52.384;4.882;2024-03-07T07:17:55;104697.13;;;-145.99;100.00
81822;BME280;72257;52.384;4.882;2024-03-07T07:20:21;103893.84;;;-145.99;100.00
81822;BME280;72257;52.384;4.882;2024-03-07T07:22:49;102823.03;;;-145.99;100.00
81822;BME280;72257;52.384;4.882;2024-03-07T07:25:15;101752.47;;;-145.99;100.00
81822;BME280;72257;52.384;4.882;2024-03-07T07:27:44;100414.69;;;-145.99;100.00
81822;BME280;72257;52.384;4.882;2024-03-07T07:30:12;99344.81;;;-145.99;100.00
81822;BME280;72257;52.384;4.882;2024-03-07T07:32:38;98007.81;;;-145.99;100.00
81822;BME280;72257;52.384;4.882;2024-03-07T07:35:04;96938.56;;;-145.99;100.00
81822;BME280;72257;52.384;4.882;2024-03-07T07:37:35;95869.56;;;-145.99;100.00
81822;BME280;72257;52.384;4.882;2024-03-07T07:40:02;95068.00;;;-145.99;100.00
81822;BME280;72257;52.384;4.882;2024-03-07T07:42:28;93999.53;;;-145.99;100.00
81822;BME280;72257;52.384;4.882;2024-03-07T07:44:53;92397.31;;;-145.99;100.00
81822;BME280;72257;52.384;4.882;2024-03-07T07:47:18;90795.75;;;-145.99;100.00
81822;BME280;72257;52.384;4.882;2024-03-07T07:49:44;88928.06;;;-145.99;100.00
81822;BME280;72257;52.384;4.882;2024-03-07T07:52:09;86261.41;;;-145.99;100.00
81822;BME280;72257;52.384;4.882;2024-03-07T07:54:35;84662.28;;;-145.99;100.00
81822;BME280;72257;52.384;4.882;2024-03-07T07:57:00;82797.44;;;-145.99;100.00
81822;BME280;72257;52.384;4.882;2024-03-07T07:59:26;80933.44;;;-145.99;100.00
81822;BME280;72257;52.384;4.882;2024-03-07T08:01:51;78804.22;;;-145.99;100.00
81822;BME280;72257;52.384;4.882;2024-03-07T08:04:20;76160.91;;;-145.99;100.00
81822;BME280;72257;52.384;4.882;2024-03-07T08:06:46;75276.03;;;-145.99;100.00
81822;BME280;72257;52.384;4.882;2024-03-07T08:09:12;73949.09;;;-145.99;100.00
81822;BME280;72257;52.384;4.882;2024-03-07T08:11:41;72037.34;;;-145.99;100.00
81822;BME280;72257;52.384;4.882;2024-03-07T08:14:07;71163.75;;;-145.99;100.00
81822;BME280;72257;52.384;4.882;2024-03-07T08:16:33;71018.53;;;-145.99;100.00
81822;BME280;72257;52.384;4.882;2024-03-07T08:18:58;69330.06;;;-145.99;100.00
81822;BME280;72257;52.384;4.882;2024-03-07T08:21:24;68253.88;;;-145.99;100.00
81822;BME280;72257;52.384;4.882;2024-03-07T08:23:49;67298.22;;;-145.99;100.00
81822;BME280;72257;52.384;4.882;2024-03-07T08:26:15;66483.69;;;-145.99;100.00
81822;BME280;72257;52.384;4.882;2024-03-07T08:28:41;65851.66;;;-145.99;100.00
81822;BME280;72257;52.384;4.882;2024-03-07T08:31:06;65441.44;;;-145.99;100.00
81822;BME280;72257;52.384;4.882;2024-03-07T08:33:31;64751.56;;;-145.99;100.00
81822;BME280;72257;52.384;4.882;2024-03-07T08:35:58;64343.50;;;-145.99;100.00
81822;BME280;72257;52.384;4.882;2024-03-07T08:38:24;64088.75;;;-145.99;100.00
81822;BME280;72257;52.384;4.882;2024-03-07T08:40:50;64384.94;;;-145.99;100.00
81822;BME280;72257;52.384;4.882;2024-03-07T08:43:15;64358.00;;;-145.99;100.00
81822;BME280;72257;52.384;4.882;2024-03-07T08:45:41;64256.53;;;-145.99;100.00
81822;BME280;72257;52.384;4.882;2024-03-07T08:48:06;63589.66;;;-145.99;100.00
81822;BME280;72257;52.384;4.882;2024-03-07T08:50:35;62854.56;;;-145.99;100.00
81822;BME280;72257;52.384;4.882;2024-03-07T08:53:03;62508.81;;;-145.99;100.00
81822;BME280;72257;52.384;4.882;2024-03-07T08:55:29;62403.22;;;-145.99;100.00
81822;BME280;72257;52.384;4.882;2024-03-07T08:57:56;62361.81;;;-145.99;100.00
81822;BME280;72257;52.384;4.882;2024-03-07T09:00:21;62183.78;;;-145.99;100.00
81822;BME280;72257;52.384;4.882;2024-03-07T09:02:54;61989.19;;;-145.99;100.00
81822;BME280;72257;52.384;4.882;2024-03-07T09:05:21;61867.06;;;-145.99;100.00
81822;BME280;72257;52.384;4.882;2024-03-07T09:07:47;61448.97;;;-145.99;100.00
81822;BME280;72257;52.384;4.882;2024-03-07T09:10:13;61430.31;;;-145.99;100.00
81822;BME280;72257;52.384;4.882;2024-03-07T09:12:43;61285.44;;;-145.99;100.00
81822;BME280;72257;52.384;4.882;2024-03-07T09:15:09;61092.97;;;-145.99;100.00
81822;BME280;72257;52.384;4.882;2024-03-07T09:17:38;61012.25;;;-145.99;100.00
81822;BME280;72257;52.384;4.882;2024-03-07T09:20:05;60838.44;;;-145.99;100.00
81822;BME280;72257;52.384;4.882;2024-03-07T09:22:31;60850.84;;;-145.99;100.00
81822;BME280;72257;52.384;4.882;2024-03-07T09:24:57;60917.06;;;-145.99;100.00
81822;BME280;72257;52.384;4.882;2024-03-07T09:27:22;60819.81;;;-145.99;100.00
81822;BME280;72257;52.384;4.882;2024-03-07T09:29:48;60896.38;;;-145.99;100.00
81822;BME280;72257;52.384;4.882;2024-03-07T09:32:14;60842.56;;;-145.99;100.00
81822;BME280;72257;52.384;4.882;2024-03-07T09:34:39;60797.03;;;-145.99;100.00
81822;BME280;72257;52.384;4.882;2024-03-07T09:37:04;60521.81;;;-145.99;100.00
81822;BME280;72257;52.384;4.882;2024-03-07T09:39:32;60389.38;;;-145.99;100.00
81822;BME280;72257;52.384;4.882;2024-03-07T09:42:03;60478.38;;;-145.99;100.00
81822;BME280;72257;52.384;4.882;2024-03-07T09:44:28;60468.03;;;-145.99;100.00
81822;BME280;72257;52.384;4.882;2024-03-07T09:46:57;60391.47;;;-145.99;100.00
81822;BME280;72257;52.384;4.882;2024-03-07T09:49:28;60470.09;;;-145.99;100.00
81822;BME280;72257;52.384;4.882;2024-03-07T09:51:55;60401.81;;;-145.99;100.00
81822;BME280;72257;52.384;4.882;2024-03-07T09:54:24;60281.78;;;-145.99;100.00
81822;BME280;72257;52.384;4.882;2024-03-07T09:56:52;60110.06;;;-145.99;100.00
81822;BME280;72257;52.384;4.882;2024-03-07T09:59:19;60041.78;;;-145.99;100.00
81822;BME280;72257;52.384;4.882;2024-03-07T10:01:47;59996.25;;;-145.99;100.00
81822;BME280;72257;52.384;4.882;2024-03-07T10:04:13;59861.78;;;-145.99;100.00
81822;BME280;72257;52.384;4.882;2024-03-07T10:06:42;59925.91;;;-145.99;100.00
81822;BME280;72257;52.384;4.882;2024-03-07T10:09:10;59927.97;;;-145.99;100.00
81822;BME280;72257;52.384;4.882;2024-03-07T10:11:39;59826.59;;;-145.99;100.00
81822;BME280;72257;52.384;4.882;2024-03-07T10:14:04;59659.03;;;-145.99;100.00
81822;BME280;72257;52.384;4.882;2024-03-07T10:16:30;59588.69;;;-145.99;100.00
81822;BME280;72257;52.384;4.882;2024-03-07T10:18:57;59516.28;;;-145.99;100.00
81822;BME280;72257;52.384;4.882;2024-03-07T10:21:23;59361.13;;;-145.99;100.00
81822;BME280;72257;52.384;4.882;2024-03-07T10:23:49;59274.25;;;-145.99;100.00
81822;BME280;72257;52.384;4.882;2024-03-07T10:26:16;59305.28;;;-145.99;100.00
81822;BME280;72257;52.384;4.882;2024-03-07T10:28:42;59299.06;;;-145.99;100.00
81822;BME280;72257;52.384;4.882;2024-03-07T10:31:08;59315.63;;;-145.99;100.00
81822;BME280;72257;52.384;4.882;2024-03-07T10:33:39;59290.81;;;-145.99;100.00
81822;BME280;72257;52.384;4.882;2024-03-07T10:36:05;59305.28;;;-145.99;100.00
81822;BME280;72257;52.384;4.882;2024-03-07T10:38:38;59239.09;;;-145.99;100.00
81822;BME280;72257;52.384;4.882;2024-03-07T10:41:06;59206.00;;;-145.99;100.00
81822;BME280;72257;52.384;4.882;2024-03-07T10:43:38;59230.81;;;-145.99;100.00
81822;BME280;72257;52.384;4.882;2024-03-07T10:46:07;59210.13;;;-145.99;100.00
81822;BME280;72257;52.384;4.882;2024-03-07T10:48:38;59203.91;;;-145.99;100.00
81822;BME280;72257;52.384;4.882;2024-03-07T10:51:26;59131.53;;;-145.99;100.00
81822;BME280;72257;52.384;4.882;2024-03-07T10:56:46;59032.22;;;-145.99;100.00
81822;BME280;72257;52.384;4.882;2024-03-07T10:59:17;59015.69;;;-145.99;100.00
81822;BME280;72257;52.384;4.882;2024-03-07T11:02:24;58999.13;;;-145.99;100.00
81822;BME280;72257;52.384;4.882;2024-03-07T11:04:53;58997.06;;;-145.99;100.00
81822;BME280;72257;52.384;4.882;2024-03-07T11:07:21;58978.44;;;-145.99;100.00
81822;BME280;72257;52.384;4.882;2024-03-07T11:09:49;58935.00;;;-145.99;100.00
81822;BME280;72257;52.384;4.882;2024-03-07T11:12:23;58937.06;;;-145.99;100.00
81822;BME280;72257;52.384;4.882;2024-03-07T11:14:50;58895.72;;;-145.99;100.00
81822;BME280;72257;52.384;4.882;2024-03-07T11:17:18;58866.75;;;-145.99;100.00
81822;BME280;72257;52.384;4.882;2024-03-07T11:19:45;58870.88;;;-145.99;100.00
81822;BME280;72257;52.384;4.882;2024-03-07T11:22:11;58879.16;;;-145.99;100.00
81822;BME280;72257;52.384;4.882;2024-03-07T11:24:41;58932.94;;;-145.99;100.00
81822;BME280;72257;52.384;4.882;2024-03-07T11:27:09;58885.38;;;-145.99;100.00
81822;BME280;72257;52.384;4.882;2024-03-07T11:29:48;58852.28;;;-145.99;100.00
81822;BME280;72257;52.384;4.882;2024-03-07T11:32:23;58877.09;;;-145.99;100.00
81822;BME280;72257;52.384;4.882;2024-03-07T11:34:49;58858.47;;;-145.99;100.00
81822;BME280;72257;52.384;4.882;2024-03-07T11:37:19;58769.53;;;-145.99;100.00
81822;BME280;72257;52.384;4.882;2024-03-07T11:39:48;58755.06;;;-145.99;100.00
81822;BME280;72257;52.384;4.882;2024-03-07T11:42:26;58748.84;;;-145.99;100.00
81822;BME280;72257;52.384;4.882;2024-03-07T11:44:57;58701.28;;;-145.99;100.00
81822;BME280;72257;52.384;4.882;2024-03-07T11:47:27;58738.50;;;-145.99;100.00
81822;BME280;72257;52.384;4.882;2024-03-07T11:50:00;58765.41;;;-145.99;100.00
81822;BME280;72257;52.384;4.882;2024-03-07T11:52:27;58732.31;;;-145.99;100.00
81822;BME280;72257;52.384;4.882;2024-03-07T11:54:53;58753.00;;;-145.99;100.00
81822;BME280;72257;52.384;4.882;2024-03-07T11:57:19;58748.84;;;-145.99;100.00
81822;BME280;72257;52.384;4.882;2024-03-07T11:59:45;58800.56;;;-145.99;100.00
81822;BME280;72257;52.384;4.882;2024-03-07T12:02:15;58777.81;;;-145.99;100.00
81822;BME280;72257;52.384;4.882;2024-03-07T12:04:44;58825.38;;;-145.99;100.00
81822;BME280;72257;52.384;4.882;2024-03-07T12:07:10;58815.03;;;-145.99;100.00
81822;BME280;72257;52.384;4.882;2024-03-07T12:09:40;58825.38;;;-145.99;100.00
81822;BME280;72257;52.384;4.882;2024-03-07T12:12:08;58825.38;;;-145.99;100.00
81822;BME280;72257;52.384;4.882;2024-03-07T12:14:34;58788.16;;;-145.99;100.00
81822;BME280;72257;52.384;4.882;2024-03-07T12:17:03;58775.75;;;-145.99;100.00
81822;BME280;72257;52.384;4.882;2024-03-07T12:19:31;58728.19;;;-145.99;100.00
81822;BME280;72257;52.384;4.882;2024-03-07T12:22:00;58773.69;;;-145.99;100.00
81822;BME280;72257;52.384;4.882;2024-03-07T12:24:26;58719.91;;;-145.99;100.00